Terminal Aerodrome Forecast
Issued by NWS

Home | Current Version | Previous Version | Text Only | Print | Product List | Glossary On
Versions: 1 2 3 4 5 6 7 8 9 10 11 12 13 14 15 16 17 18 19 20 21 22 23 24 25
142
FTUS41 KBUF 290232 AAA
TAFIAG
TAF AMD
KIAG 290232Z 2903/2924 18007KT P6SM OVC110
     FM290600 VRB03KT P6SM BKN090
     FM290800 VRB03KT P6SM VCSH BKN060
     FM291100 29005KT P6SM BKN040
     FM291500 33007KT P6SM BKN060=

USA.gov is the U.S. government's official web portal to all federal, state and local government web resources and services.